Time;durP1;ratioP1;P1;durP2;ratioP2;P2;SDS_P1;SDS_P2;PMS_P1;PMS_P2;Temp;Humidity;BMP_temperature;BMP_pressure;BME280_temperature;BME280_humidity;BME280_pressure;Samples;Min_cycle;Max_cycle;Signal;HPM_P1;HPM_P2
2021/10/02 00:41:57;;;;;;;3.13;1.43;;;;;;;16.29;59.46;97196.75;5008006;28;20037;-82
2021/10/02 00:44:39;;;;;;;3.08;1.25;;;;;;;16.23;59.72;97197.09;4993005;28;20042;-81
2021/10/02 00:47:06;;;;;;;2.22;1.50;;;;;;;16.25;59.49;97211.50;4993222;28;20061;-82
2021/10/02 00:49:32;;;;;;;2.10;1.20;;;;;;;16.21;59.24;97201.84;4975159;28;20037;-84
2021/10/02 00:51:57;;;;;;;2.47;1.50;;;;;;;16.21;59.48;97197.38;5007269;28;20030;-82
2021/10/02 00:54:23;;;;;;;3.78;1.55;;;;;;;16.11;59.97;97205.38;4990846;28;20030;-82
2021/10/02 00:56:48;;;;;;;2.40;1.30;;;;;;;16.14;59.71;97191.66;4987422;28;20042;-82
2021/10/02 00:59:14;;;;;;;3.75;1.50;;;;;;;16.14;59.88;97198.75;4990298;28;20045;-83
2021/10/02 01:01:42;;;;;;;2.90;1.73;;;;;;;16.04;60.17;97202.28;5008893;28;20127;-82
2021/10/02 01:04:36;;;;;;;3.38;1.42;;;;;;;15.71;60.67;97199.41;4990859;28;20029;-82
2021/10/02 01:07:01;;;;;;;3.58;1.50;;;;;;;16.01;59.96;97203.63;4969412;28;20058;-82
2021/10/02 01:09:41;;;;;;;2.45;1.20;;;;;;;15.66;60.61;97191.59;5007068;28;20504;-82
2021/10/02 01:12:34;;;;;;;2.90;1.77;;;;;;;15.65;60.96;97195.28;5006722;28;20077;-81
2021/10/02 01:15:08;;;;;;;1.95;1.02;;;;;;;15.60;60.96;97187.47;5005214;28;20026;-82
2021/10/02 01:17:53;;;;;;;4.80;1.60;;;;;;;15.48;61.46;97185.97;5006173;28;20030;-82
2021/10/02 01:20:57;;;;;;;1.98;1.10;;;;;;;15.48;61.60;97185.19;4990259;28;20038;-82
2021/10/02 01:23:56;;;;;;;2.63;1.70;;;;;;;15.55;62.30;97180.41;5006510;28;20061;-82
2021/10/02 01:26:47;;;;;;;4.18;1.48;;;;;;;15.54;62.53;97178.81;5006217;28;20193;-83
2021/10/02 01:29:15;;;;;;;3.35;1.63;;;;;;;15.76;62.15;97180.25;4987451;28;20342;-82
2021/10/02 01:31:52;;;;;;;5.15;1.77;;;;;;;15.67;62.41;97180.81;4986258;28;20452;-82
2021/10/02 01:34:24;;;;;;;5.15;1.77;;;;;;;15.65;63.05;97172.44;4989300;28;20417;-82
2021/10/02 01:37:06;;;;;;;5.25;1.70;;;;;;;15.62;62.78;97169.59;4984635;28;20018;-82
2021/10/02 01:47:52;;;;;;;3.00;1.67;;;;;;;15.84;62.24;97166.53;4999782;28;20060;-81
2021/10/02 01:50:30;;;;;;;4.55;1.20;;;;;;;15.69;62.60;97151.66;4979219;28;20030;-83
2021/10/02 01:52:59;;;;;;;4.00;1.38;;;;;;;15.73;62.29;97150.06;4983862;28;20029;-84
2021/10/02 01:55:25;;;;;;;3.17;1.00;;;;;;;15.89;61.84;97140.22;5000539;28;20500;-83
2021/10/02 01:57:56;;;;;;;3.80;1.13;;;;;;;15.84;61.78;97141.03;4971208;28;20124;-82
2021/10/02 02:00:22;;;;;;;3.30;1.35;;;;;;;15.95;61.72;97133.06;4970690;28;20065;-83
2021/10/02 02:02:52;;;;;;;3.88;1.25;;;;;;;15.88;61.60;97128.91;4972541;28;20161;-83
2021/10/02 02:05:21;;;;;;;2.28;0.90;;;;;;;15.93;61.37;97135.19;4957337;28;20030;-82
2021/10/02 02:07:50;;;;;;;1.88;1.10;;;;;;;15.89;61.17;97137.59;4990248;28;20501;-83
2021/10/02 02:10:18;;;;;;;3.85;1.08;;;;;;;15.94;61.04;97141.97;5006822;28;20037;-83
2021/10/02 02:12:45;;;;;;;2.90;0.93;;;;;;;16.01;60.57;97139.81;4962177;28;20031;-83
2021/10/02 02:15:12;;;;;;;2.55;1.10;;;;;;;15.99;60.89;97144.56;4972127;28;20038;-82
2021/10/02 02:17:43;;;;;;;1.73;1.40;;;;;;;15.78;61.10;97129.03;4955680;28;20167;-83
2021/10/02 02:20:11;;;;;;;2.10;1.00;;;;;;;15.95;61.18;97139.06;4972026;28;20410;-84
2021/10/02 02:22:37;;;;;;;1.65;0.98;;;;;;;15.99;60.99;97131.41;4988905;28;20027;-82
2021/10/02 02:25:04;;;;;;;2.83;1.40;;;;;;;16.00;61.00;97133.00;4991335;28;20572;-83
2021/10/02 02:27:30;;;;;;;3.88;1.13;;;;;;;15.96;60.76;97132.00;4975102;28;20400;-83
2021/10/02 02:29:56;;;;;;;4.38;1.70;;;;;;;16.03;60.56;97141.09;5007632;28;20133;-82
2021/10/02 02:32:22;;;;;;;2.03;0.70;;;;;;;15.99;60.71;97144.56;4991157;28;20107;-82
2021/10/02 02:34:48;;;;;;;2.55;0.70;;;;;;;15.97;60.87;97134.34;4975216;28;20385;-83
2021/10/02 02:37:14;;;;;;;2.55;1.10;;;;;;;15.97;61.06;97133.56;5007634;28;20437;-82
2021/10/02 02:39:39;;;;;;;2.63;1.27;;;;;;;15.98;61.12;97130.66;4991733;28;20092;-82
2021/10/02 02:42:05;;;;;;;1.92;0.90;;;;;;;15.98;61.15;97141.16;5007480;28;20269;-82
2021/10/02 02:44:31;;;;;;;2.50;0.90;;;;;;;15.95;61.19;97133.06;4975055;28;20037;-82
2021/10/02 02:47:03;;;;;;;1.90;1.02;;;;;;;15.87;61.23;97140.50;5007318;28;20037;-82
2021/10/02 02:49:46;;;;;;;2.40;0.88;;;;;;;15.73;61.14;97139.56;4974823;28;20083;-83
2021/10/02 02:52:18;;;;;;;3.45;0.90;;;;;;;15.81;61.27;97136.34;4990931;28;20505;-82
2021/10/02 02:55:03;;;;;;;2.63;1.10;;;;;;;15.75;61.81;97147.97;4993098;28;20026;-81
2021/10/02 02:57:33;;;;;;;2.95;1.50;;;;;;;15.81;61.39;97141.59;5009447;28;20167;-82
2021/10/02 03:00:05;;;;;;;4.65;1.13;;;;;;;15.81;61.95;97136.34;4998391;28;20041;-82
2021/10/02 03:02:33;;;;;;;3.35;1.13;;;;;;;15.83;61.96;97128.97;4998310;28;20381;-82
2021/10/02 03:05:02;;;;;;;1.75;1.17;;;;;;;15.81;61.76;97125.84;5014308;28;20077;-82
2021/10/02 03:07:28;;;;;;;2.90;0.90;;;;;;;15.91;61.69;97127.56;5014508;28;20029;-82
2021/10/02 03:09:54;;;;;;;1.63;1.05;;;;;;;15.93;61.79;97129.94;5014068;28;20393;-83
2021/10/02 03:12:22;;;;;;;2.92;1.00;;;;;;;15.87;61.71;97132.59;5014537;28;20374;-82
2021/10/02 03:14:50;;;;;;;2.25;0.98;;;;;;;15.81;61.83;97130.31;4997928;28;20399;-82
2021/10/02 03:17:16;;;;;;;2.28;1.30;;;;;;;15.96;61.24;97132.78;5013524;28;20512;-82
2021/10/02 03:19:42;;;;;;;2.67;0.80;;;;;;;15.97;61.83;97133.56;5014888;28;20481;-82
2021/10/02 03:22:08;;;;;;;2.50;1.05;;;;;;;15.94;61.67;97126.22;4997622;28;20033;-82
2021/10/02 03:24:36;;;;;;;1.33;0.80;;;;;;;15.94;61.64;97126.22;4997549;28;20476;-84
2021/10/02 03:27:03;;;;;;;2.80;0.90;;;;;;;15.96;61.70;97129.38;5013723;28;20104;-82
2021/10/02 03:29:29;;;;;;;3.38;0.93;;;;;;;16.01;61.72;97129.31;4997822;28;20041;-82
2021/10/02 03:31:55;;;;;;;3.05;1.13;;;;;;;15.96;62.02;97132.00;5030967;28;20025;-82
2021/10/02 03:34:20;;;;;;;3.70;1.30;;;;;;;15.94;62.07;97126.22;5030599;28;20424;-82
2021/10/02 03:36:46;;;;;;;2.35;1.05;;;;;;;15.98;61.87;97128.03;4997304;28;20036;-82
2021/10/02 03:39:11;;;;;;;1.50;0.80;;;;;;;15.91;62.05;97132.84;4997570;28;20025;-82
2021/10/02 03:41:36;;;;;;;2.88;1.02;;;;;;;15.87;62.19;97139.72;5014328;28;20046;-82
2021/10/02 03:44:02;;;;;;;1.30;0.70;;;;;;;15.90;62.28;97132.06;4997161;28;20025;-82
2021/10/02 03:46:27;;;;;;;2.17;1.00;;;;;;;15.97;62.10;97129.09;4997543;28;20041;-82
2021/10/02 03:48:53;;;;;;;2.97;1.02;;;;;;;15.96;61.90;97121.50;5013544;28;20044;-81
2021/10/02 03:51:18;;;;;;;2.13;1.20;;;;;;;15.96;62.38;97124.13;4996981;28;20033;-82
2021/10/02 03:53:44;;;;;;;4.07;1.30;;;;;;;16.00;61.68;97130.38;5013721;28;20539;-82
2021/10/02 03:56:11;;;;;;;1.58;1.10;;;;;;;16.01;62.06;97131.94;5029450;28;20188;-82
2021/10/02 03:58:37;;;;;;;1.75;1.10;;;;;;;16.03;61.63;97127.19;4996993;28;20092;-83
2021/10/02 04:01:03;;;;;;;2.63;1.00;;;;;;;16.02;61.42;97120.38;4997020;28;20069;-82
2021/10/02 04:03:29;;;;;;;2.50;1.00;;;;;;;15.98;61.80;97124.63;5030142;28;20468;-82
2021/10/02 04:05:54;;;;;;;3.63;0.85;;;;;;;16.05;61.08;97119.81;5012762;28;20065;-82
2021/10/02 04:08:19;;;;;;;2.65;0.95;;;;;;;16.01;61.26;97113.56;4996069;28;20030;-82
2021/10/02 04:10:45;;;;;;;1.67;0.80;;;;;;;16.05;61.17;97109.28;5031554;28;20025;-82
2021/10/02 04:13:10;;;;;;;2.97;1.30;;;;;;;16.02;61.19;97102.78;5013537;28;20052;-82
2021/10/02 04:15:36;;;;;;;1.85;0.80;;;;;;;16.03;60.83;97106.94;5013683;28;20532;-82
2021/10/02 04:18:02;;;;;;;3.35;1.05;;;;;;;16.07;60.88;97086.16;5012717;28;20044;-82
2021/10/02 04:20:27;;;;;;;0.98;0.88;;;;;;;16.06;60.54;97089.88;4996571;28;20029;-82
2021/10/02 04:22:53;;;;;;;2.20;1.20;;;;;;;16.10;59.97;97075.88;5029529;28;20025;-83
2021/10/02 04:25:19;;;;;;;1.98;1.00;;;;;;;16.12;59.36;97075.59;5029314;28;20046;-82
2021/10/02 04:27:44;;;;;;;2.83;1.10;;;;;;;16.17;58.77;97070.28;4996478;28;20030;-82
2021/10/02 04:30:09;;;;;;;1.10;0.93;;;;;;;16.13;59.09;97073.75;4996160;28;20048;-83
2021/10/02 04:32:35;;;;;;;2.70;0.98;;;;;;;16.11;59.54;97074.03;5029387;28;20032;-83
2021/10/02 04:35:00;;;;;;;2.40;1.00;;;;;;;16.26;58.50;97080.91;5029513;28;20044;-82
2021/10/02 04:37:25;;;;;;;3.22;1.30;;;;;;;16.19;59.05;97073.38;5030190;28;20029;-82
2021/10/02 04:39:51;;;;;;;2.22;1.10;;;;;;;16.18;59.43;97066.59;5012985;28;20035;-82
2021/10/02 04:42:16;;;;;;;2.50;0.98;;;;;;;16.15;59.68;97077.66;4996155;28;20080;-82
2021/10/02 04:44:42;;;;;;;3.53;1.10;;;;;;;16.17;58.94;97070.28;4996434;28;20066;-82
2021/10/02 04:47:07;;;;;;;3.58;1.08;;;;;;;16.15;59.12;97067.16;5012508;28;20393;-82
2021/10/02 04:49:32;;;;;;;1.40;0.70;;;;;;;16.11;58.96;97071.41;4996472;28;20025;-82
2021/10/02 04:51:58;;;;;;;3.55;1.25;;;;;;;16.14;59.27;97073.44;5012450;28;20107;-82
2021/10/02 04:54:23;;;;;;;2.55;0.90;;;;;;;16.14;59.11;97076.09;4995883;28;20083;-82
2021/10/02 04:56:49;;;;;;;3.35;1.15;;;;;;;16.15;59.00;97075.03;4994668;28;20030;-83
2021/10/02 04:59:14;;;;;;;2.25;0.77;;;;;;;16.24;58.54;97081.19;4990918;28;20115;-82
2021/10/02 05:01:39;;;;;;;2.88;0.70;;;;;;;16.21;58.80;97081.78;4990995;28;20535;-81
2021/10/02 05:04:05;;;;;;;1.52;1.02;;;;;;;16.19;58.83;97083.91;4991104;28;20088;-82
2021/10/02 05:06:31;;;;;;;1.55;1.00;;;;;;;16.17;57.89;97065.00;4974503;28;20162;-82
2021/10/02 05:08:56;;;;;;;2.08;0.70;;;;;;;16.27;57.72;97070.13;4991236;28;20041;-82
2021/10/02 05:11:22;;;;;;;1.75;0.90;;;;;;;16.22;57.78;97067.56;5007303;28;20091;-82
2021/10/02 05:13:48;;;;;;;2.53;0.93;;;;;;;16.33;57.98;97072.69;5007159;28;20033;-83
2021/10/02 05:16:13;;;;;;;2.15;0.60;;;;;;;16.31;58.05;97067.72;4974287;28;20025;-82
2021/10/02 05:18:38;;;;;;;2.17;0.90;;;;;;;16.20;58.13;97061.06;5006405;28;20091;-82
2021/10/02 05:21:04;;;;;;;2.00;0.98;;;;;;;16.11;58.16;97058.28;4990530;28;20482;-83
2021/10/02 05:23:29;;;;;;;1.77;0.85;;;;;;;16.13;57.34;97050.13;4990322;28;20018;-83
2021/10/02 05:25:55;;;;;;;1.10;0.98;;;;;;;16.07;57.32;97058.06;5007305;28;20482;-83
2021/10/02 05:28:24;;;;;;;1.90;0.80;;;;;;;15.93;57.25;97051.94;4974588;28;20040;-82
2021/10/02 05:30:50;;;;;;;1.90;0.90;;;;;;;16.03;57.53;97043.16;4991738;28;20105;-84
2021/10/02 05:33:16;;;;;;;1.45;0.80;;;;;;;16.04;56.93;97044.69;4959634;28;20022;-82
2021/10/02 05:35:41;;;;;;;2.13;1.00;;;;;;;15.95;57.21;97049.03;4991593;28;20477;-82
2021/10/02 05:38:07;;;;;;;2.97;1.00;;;;;;;15.95;57.07;97060.31;4991036;28;20057;-82
2021/10/02 05:40:32;;;;;;;1.40;0.90;;;;;;;15.99;57.04;97053.44;5007758;28;20136;-82
2021/10/02 05:42:59;;;;;;;3.40;0.98;;;;;;;15.88;57.54;97052.75;5024786;28;20436;-82
2021/10/02 05:45:25;;;;;;;2.67;1.00;;;;;;;15.79;58.21;97059.72;4988129;28;20034;-81
2021/10/02 05:47:50;;;;;;;1.83;1.00;;;;;;;15.80;57.85;97056.03;4971682;28;20509;-82
2021/10/02 05:50:16;;;;;;;1.15;0.75;;;;;;;15.78;57.48;97047.66;4971894;28;20117;-84
2021/10/02 05:52:41;;;;;;;2.15;0.82;;;;;;;15.73;57.46;97055.56;4988901;28;20435;-82
2021/10/02 05:55:07;;;;;;;2.25;1.17;;;;;;;15.82;57.75;97072.28;4988419;28;20030;-82
2021/10/02 05:57:33;;;;;;;1.52;0.95;;;;;;;15.77;57.81;97056.59;4990854;28;20456;-83
2021/10/02 05:59:58;;;;;;;1.63;0.80;;;;;;;15.74;57.51;97047.38;5007720;28;20111;-82
2021/10/02 06:02:24;;;;;;;1.58;0.98;;;;;;;15.73;57.85;97051.09;4991248;28;20034;-82
2021/10/02 06:04:49;;;;;;;1.42;0.90;;;;;;;15.66;57.71;97052.47;4974892;28;20034;-82
2021/10/02 06:07:14;;;;;;;1.17;0.65;;;;;;;15.74;57.62;97055.25;4990797;28;20478;-82
2021/10/02 06:09:40;;;;;;;2.70;0.80;;;;;;;15.81;57.65;97046.31;4991167;28;20037;-83
2021/10/02 06:12:06;;;;;;;1.40;0.88;;;;;;;15.82;57.60;97055.75;4990822;28;20033;-83
2021/10/02 06:14:31;;;;;;;2.20;0.90;;;;;;;15.86;57.60;97062.78;4991143;28;20370;-82
2021/10/02 06:16:56;;;;;;;2.13;1.13;;;;;;;15.87;57.92;97064.34;4974663;28;20443;-82
2021/10/02 06:19:22;;;;;;;1.95;0.88;;;;;;;15.86;57.94;97064.63;4991003;28;20037;-83
2021/10/02 06:21:47;;;;;;;1.42;0.80;;;;;;;15.79;58.35;97064.19;4991355;28;20386;-82
2021/10/02 06:24:13;;;;;;;2.15;0.80;;;;;;;15.86;57.72;97072.50;4991358;28;20062;-82
2021/10/02 06:26:39;;;;;;;1.48;1.05;;;;;;;15.86;58.28;97073.28;4991090;28;20034;-81
2021/10/02 06:29:06;;;;;;;1.17;0.80;;;;;;;15.90;58.37;97066.41;4991648;28;20080;-82
2021/10/02 06:31:32;;;;;;;1.70;1.02;;;;;;;15.97;58.35;97070.53;4979086;28;20026;-83
2021/10/02 06:33:57;;;;;;;1.48;0.80;;;;;;;15.88;58.53;97068.50;4978955;28;20483;-82
2021/10/02 06:36:22;;;;;;;1.92;0.98;;;;;;;15.91;58.17;97067.19;5010645;28;20042;-82
2021/10/02 06:38:48;;;;;;;2.50;1.15;;;;;;;16.01;57.92;97056.56;4995092;28;20741;-83
2021/10/02 06:41:14;;;;;;;2.30;0.77;;;;;;;15.93;58.06;97056.41;4994517;28;20080;-82
2021/10/02 06:43:39;;;;;;;1.63;0.90;;;;;;;16.14;57.51;97044.56;5011353;28;20029;-82
2021/10/02 06:46:07;;;;;;;1.30;0.82;;;;;;;16.30;57.19;97042.53;5010881;28;20049;-83
2021/10/02 06:48:33;;;;;;;2.25;0.63;;;;;;;16.42;57.14;97044.72;5003969;28;20096;-83
2021/10/02 06:50:58;;;;;;;2.67;1.08;;;;;;;16.53;56.40;97040.09;4959118;28;20412;-83
2021/10/02 06:53:23;;;;;;;2.45;1.05;;;;;;;16.63;56.00;97053.09;4958774;28;20030;-82
2021/10/02 06:55:49;;;;;;;3.20;1.10;;;;;;;16.50;56.28;97054.56;4974719;28;20594;-82
2021/10/02 06:58:17;;;;;;;1.83;1.13;;;;;;;16.65;55.77;97050.94;4992552;28;20099;-83
2021/10/02 07:00:42;;;;;;;3.08;1.17;;;;;;;16.84;55.44;97056.19;4985912;28;20029;-84
2021/10/02 07:03:11;;;;;;;2.85;0.80;;;;;;;16.80;55.40;97061.22;5008002;28;20250;-84
2021/10/02 07:05:36;;;;;;;3.35;0.68;;;;;;;16.89;55.72;97058.75;4985894;28;20037;-83
2021/10/02 07:08:01;;;;;;;1.83;0.95;;;;;;;16.93;55.69;97067.66;4989232;28;20026;-83
2021/10/02 07:10:27;;;;;;;1.98;0.88;;;;;;;17.18;55.07;97055.13;4975359;28;20109;-82
2021/10/02 07:12:54;;;;;;;2.28;0.98;;;;;;;17.30;54.99;97058.06;4975307;28;20038;-82
2021/10/02 07:15:20;;;;;;;1.27;0.90;;;;;;;17.38;55.22;97070.56;4975299;28;20100;-84
2021/10/02 07:17:45;;;;;;;1.98;0.82;;;;;;;17.47;54.69;97067.25;4974676;28;20042;-82
2021/10/02 07:20:14;;;;;;;1.77;1.17;;;;;;;17.41;55.15;97062.09;4972736;28;20503;-82
2021/10/02 07:22:43;;;;;;;1.60;0.90;;;;;;;17.39;54.72;97073.97;5011980;28;20056;-81
2021/10/02 07:25:15;;;;;;;3.15;0.70;;;;;;;17.39;54.33;97058.97;4963241;28;20041;-82
2021/10/02 07:27:41;;;;;;;2.45;0.80;;;;;;;17.38;55.03;97064.53;4978669;28;20036;-83
2021/10/02 07:30:08;;;;;;;1.30;0.90;;;;;;;17.64;54.90;97066.69;4978118;28;20026;-84
2021/10/02 07:32:34;;;;;;;1.75;0.90;;;;;;;17.69;54.60;97062.09;4993729;28;20125;-83
2021/10/02 07:35:00;;;;;;;1.40;0.70;;;;;;;17.44;54.24;97050.19;4993927;28;20549;-85
2021/10/02 07:37:25;;;;;;;1.15;0.73;;;;;;;17.62;54.02;97047.78;4976205;28;20030;-84
2021/10/02 07:39:51;;;;;;;0.77;0.57;;;;;;;18.01;53.52;97044.66;4986106;28;20031;-82
2021/10/02 07:42:17;;;;;;;1.30;0.70;;;;;;;18.18;52.58;97048.50;4974906;28;20390;-82
2021/10/02 07:44:44;;;;;;;2.40;1.40;;;;;;;18.17;53.03;97036.41;4975694;28;20023;-83
2021/10/02 07:47:10;;;;;;;1.60;0.70;;;;;;;18.49;52.25;97038.84;4976051;28;20038;-83
2021/10/02 07:49:36;;;;;;;1.52;0.85;;;;;;;18.59;51.73;97026.50;4990726;28;20487;-82
2021/10/02 07:52:05;;;;;;;1.88;0.80;;;;;;;18.77;51.98;97037.94;4990859;28;20030;-82
2021/10/02 07:54:32;;;;;;;2.00;0.73;;;;;;;19.09;50.75;97029.78;4960601;28;20030;-83
2021/10/02 07:56:58;;;;;;;1.33;0.80;;;;;;;19.11;50.86;97036.59;4987192;28;20034;-82
2021/10/02 07:59:23;;;;;;;2.50;0.80;;;;;;;19.32;50.68;97042.16;5000767;28;20038;-83
2021/10/02 08:01:49;;;;;;;2.25;0.60;;;;;;;19.07;50.89;97034.59;4969736;28;20034;-83
2021/10/02 08:04:14;;;;;;;1.73;0.90;;;;;;;19.00;51.58;97050.06;4993707;28;20036;-85
2021/10/02 08:06:40;;;;;;;2.22;0.90;;;;;;;19.24;50.58;97046.31;4990480;28;20553;-84
2021/10/02 08:09:05;;;;;;;1.83;1.52;;;;;;;19.40;50.42;97036.91;4958932;28;20037;-82
2021/10/02 08:11:31;;;;;;;0.68;0.60;;;;;;;19.67;49.51;97037.75;4976928;28;20053;-83
2021/10/02 08:13:57;;;;;;;2.42;0.90;;;;;;;19.83;49.89;97041.56;4983580;28;20079;-83
2021/10/02 08:16:28;;;;;;;2.10;1.00;;;;;;;19.80;49.09;97042.19;4974160;28;20034;-83
2021/10/02 08:18:56;;;;;;;1.35;0.75;;;;;;;20.13;48.75;97038.34;4976588;28;20600;-83
2021/10/02 08:21:22;;;;;;;1.75;0.90;;;;;;;19.99;49.46;97033.97;4974269;28;20026;-82
2021/10/02 08:23:48;;;;;;;1.77;0.85;;;;;;;20.33;49.00;97042.25;4973837;28;20305;-82
2021/10/02 08:26:14;;;;;;;1.65;0.80;;;;;;;20.26;48.58;97028.75;4974063;28;20030;-82
2021/10/02 08:28:44;;;;;;;2.17;1.10;;;;;;;20.34;48.48;97031.38;4974747;28;20096;-82
2021/10/02 08:31:10;;;;;;;2.38;0.85;;;;;;;19.92;48.73;97038.19;4958220;28;20485;-82
2021/10/02 08:33:36;;;;;;;2.50;1.27;;;;;;;19.81;50.00;97043.75;4957467;28;20203;-83
2021/10/02 08:36:01;;;;;;;1.73;0.85;;;;;;;19.98;49.91;97048.28;4972911;28;20242;-81
2021/10/02 08:38:27;;;;;;;1.65;1.00;;;;;;;20.07;49.84;97044.91;4957607;28;20048;-83
2021/10/02 08:40:54;;;;;;;1.95;1.10;;;;;;;20.02;49.94;97041.28;4957708;28;20196;-82
2021/10/02 08:43:20;;;;;;;2.42;0.90;;;;;;;20.26;49.15;97029.50;4973535;28;20161;-83
2021/10/02 08:45:46;;;;;;;1.45;1.00;;;;;;;20.54;48.13;97018.59;4967831;28;20034;-82
2021/10/02 08:48:17;;;;;;;1.85;1.00;;;;;;;20.38;49.01;97020.94;4992143;28;20026;-83
2021/10/02 08:50:44;;;;;;;4.40;1.67;;;;;;;20.66;48.97;97020.66;4993074;28;20508;-82
2021/10/02 08:53:11;;;;;;;0.90;0.82;;;;;;;20.59;48.46;97015.78;4960222;28;20037;-83
2021/10/02 08:55:37;;;;;;;3.40;1.20;;;;;;;20.50;48.13;97009.75;4992725;28;20153;-82
2021/10/02 08:58:03;;;;;;;1.13;1.00;;;;;;;20.43;48.67;97012.09;5006740;28;20531;-83
2021/10/02 09:00:30;;;;;;;1.77;0.98;;;;;;;20.61;48.66;97005.66;4997023;28;20040;-82
2021/10/02 09:02:56;;;;;;;2.38;1.00;;;;;;;20.44;49.17;96995.13;4996281;28;20025;-84
2021/10/02 09:05:23;;;;;;;2.08;0.80;;;;;;;20.74;48.24;96998.69;5012137;28;20056;-82
2021/10/02 09:07:51;;;;;;;1.40;0.90;;;;;;;20.34;49.40;96997.00;4995945;28;20025;-84
2021/10/02 09:10:17;;;;;;;1.25;0.90;;;;;;;20.54;49.49;97002.72;4995790;28;20110;-83
2021/10/02 09:12:44;;;;;;;1.58;0.90;;;;;;;20.37;48.71;96993.75;4996709;28;20091;-83
2021/10/02 09:15:13;;;;;;;3.88;1.38;;;;;;;20.45;50.61;96996.69;4996090;28;20397;-82
2021/10/02 09:17:38;;;;;;;1.75;0.80;;;;;;;20.70;50.09;96990.59;5013713;28;20079;-84
2021/10/02 09:20:06;;;;;;;1.70;0.90;;;;;;;20.73;48.18;96987.34;5013776;28;20025;-82
2021/10/02 09:22:32;;;;;;;2.90;0.90;;;;;;;20.63;49.77;96982.38;4997189;28;20366;-84
2021/10/02 09:25:00;;;;;;;1.00;0.90;;;;;;;20.74;48.87;96975.66;4997573;28;20039;-83
2021/10/02 09:27:28;;;;;;;2.88;0.90;;;;;;;21.05;48.62;96971.22;5013208;28;20029;-83
2021/10/02 09:29:56;;;;;;;1.75;1.10;;;;;;;21.26;49.40;96976.56;5013269;28;20029;-82
2021/10/02 09:32:27;;;;;;;1.80;1.13;;;;;;;21.09;48.29;96974.75;4976468;28;20140;-82
2021/10/02 09:34:55;;;;;;;1.95;0.90;;;;;;;21.31;48.85;96979.03;4977365;28;20037;-83
2021/10/02 09:37:21;;;;;;;2.45;0.90;;;;;;;21.60;49.40;96974.88;4976726;28;20504;-84
2021/10/02 09:39:52;;;;;;;2.10;1.00;;;;;;;21.34;47.85;96973.09;4976413;28;20257;-84
2021/10/02 09:42:28;;;;;;;2.08;1.10;;;;;;;21.55;48.32;96972.41;4977423;28;20033;-84
2021/10/02 09:45:04;;;;;;;2.58;0.98;;;;;;;21.35;47.66;96974.63;4991367;28;20108;-83
2021/10/02 09:47:29;;;;;;;1.73;1.20;;;;;;;21.62;47.91;96973.44;4990557;28;20117;-82
2021/10/02 09:49:54;;;;;;;1.50;0.90;;;;;;;21.68;47.85;96966.88;4988574;28;20117;-82
2021/10/02 09:52:36;;;;;;;1.98;1.10;;;;;;;21.28;48.96;96958.47;5007129;28;20064;-85
2021/10/02 09:55:15;;;;;;;3.63;1.30;;;;;;;21.27;49.56;96964.88;4992222;28;20091;-83
2021/10/02 09:57:42;;;;;;;1.45;0.73;;;;;;;21.65;47.58;96956.91;4988619;28;20034;-84
2021/10/02 10:00:11;;;;;;;2.15;1.00;;;;;;;21.78;47.62;96949.81;4973685;28;20046;-83
2021/10/02 10:02:39;;;;;;;3.03;1.10;;;;;;;22.10;47.14;96944.09;5004502;28;20038;-85
2021/10/02 10:05:06;;;;;;;2.72;0.80;;;;;;;22.19;46.13;96939.50;4991508;28;20060;-84
2021/10/02 10:07:31;;;;;;;1.52;0.90;;;;;;;22.34;47.08;96930.97;4974787;28;20080;-84
2021/10/02 10:10:12;;;;;;;1.75;0.88;;;;;;;21.95;46.31;96932.22;4975583;28;20029;-86
2021/10/02 10:12:40;;;;;;;1.70;0.77;;;;;;;21.89;46.51;96942.25;4975523;28;20029;-86
2021/10/02 10:15:25;;;;;;;1.85;0.70;;;;;;;21.86;46.82;96935.69;4991941;28;20030;-85
2021/10/02 10:17:51;;;;;;;1.33;0.95;;;;;;;21.88;47.74;96930.88;5007441;28;20091;-85
2021/10/02 10:20:16;;;;;;;1.58;0.80;;;;;;;22.07;46.60;96919.00;4990553;28;20037;-84
2021/10/02 10:22:41;;;;;;;0.82;0.70;;;;;;;21.94;48.21;96915.53;4991347;28;20041;-84
2021/10/02 10:25:09;;;;;;;1.63;1.00;;;;;;;21.97;47.56;96909.59;4990657;28;20029;-85
2021/10/02 10:27:44;;;;;;;1.73;1.05;;;;;;;21.95;47.16;96903.84;4990821;28;20062;-84
2021/10/02 10:30:17;;;;;;;;;;;;;;;21.47;48.26;96900.63;4992057;28;20049;-83
2021/10/02 10:33:10;;;;;;;0.60;0.60;;;;;;;22.10;46.40;96893.72;4987982;28;19920;-85
2021/10/02 10:35:44;;;;;;;1.00;0.90;;;;;;;22.41;47.20;96890.63;4971638;28;20041;-83
2021/10/02 10:38:13;;;;;;;0.75;0.75;;;;;;;22.96;45.72;96892.06;4988337;28;20574;-85
2021/10/02 10:40:38;;;;;;;1.00;0.80;;;;;;;23.33;45.07;96888.63;4981799;28;20029;-84
2021/10/02 10:43:04;;;;;;;2.15;1.20;;;;;;;23.57;45.23;96890.44;4974897;28;20481;-84
2021/10/02 10:45:34;;;;;;;1.17;0.70;;;;;;;23.19;45.35;96891.63;4991262;28;20113;-84
2021/10/02 10:48:00;;;;;;;1.45;0.80;;;;;;;23.26;44.12;96897.13;4991334;28;20034;-85
2021/10/02 10:50:26;;;;;;;1.02;0.90;;;;;;;22.56;45.44;96892.66;5007987;28;20142;-85
2021/10/02 10:52:52;;;;;;;1.05;0.93;;;;;;;22.55;46.55;96887.69;4991377;28;20033;-83
2021/10/02 10:55:22;;;;;;;1.05;0.70;;;;;;;22.80;46.07;96891.16;4991491;28;20375;-84
2021/10/02 10:57:49;;;;;;;1.65;1.10;;;;;;;23.70;43.73;96884.00;4982991;28;20035;-84
2021/10/02 11:00:39;;;;;;;3.13;0.65;;;;;;;24.07;42.90;96885.75;4994353;28;20053;-86
2021/10/02 11:03:10;;;;;;;0.85;0.68;;;;;;;24.01;41.21;96877.25;5022137;28;20514;-84
2021/10/02 11:05:39;;;;;;;1.02;0.70;;;;;;;24.11;42.25;96878.63;4991401;28;20038;-85
2021/10/02 11:08:06;;;;;;;1.05;0.85;;;;;;;24.48;41.46;96862.47;4992166;28;20045;-85
2021/10/02 11:10:41;;;;;;;0.98;0.90;;;;;;;24.33;40.54;96861.34;4975207;28;20069;-84
2021/10/02 11:13:07;;;;;;;0.82;0.68;;;;;;;24.94;39.48;96856.75;5007416;28;20050;-84
2021/10/02 11:15:32;;;;;;;1.27;0.77;;;;;;;25.04;39.54;96842.88;4974771;28;20424;-84
2021/10/02 11:17:58;;;;;;;1.10;0.73;;;;;;;25.39;37.93;96845.56;4975331;28;20034;-84
2021/10/02 11:20:27;;;;;;;0.95;0.70;;;;;;;25.24;40.14;96838.34;4992385;28;20035;-84
2021/10/02 11:23:23;;;;;;;1.02;0.90;;;;;;;25.31;39.82;96835.88;4975116;28;20041;-83
2021/10/02 11:26:13;;;;;;;1.20;0.82;;;;;;;25.56;37.83;96827.63;4972397;28;20185;-83
2021/10/02 11:28:39;;;;;;;0.80;0.80;;;;;;;26.03;38.55;96823.97;4974843;28;20089;-85
2021/10/02 11:31:31;;;;;;;0.98;0.90;;;;;;;25.77;38.20;96817.38;4959623;28;20442;-87
2021/10/02 11:33:56;;;;;;;1.30;0.80;;;;;;;25.94;37.12;96820.69;4979078;28;20037;-84
2021/10/02 11:36:31;;;;;;;0.95;0.77;;;;;;;25.74;37.39;96817.31;4994235;28;20037;-85
2021/10/02 11:39:10;;;;;;;0.98;0.88;;;;;;;25.35;37.04;96815.41;5010546;28;20037;-84
2021/10/02 11:41:44;;;;;;;0.70;0.63;;;;;;;25.17;39.40;96815.03;4961129;28;20472;-85
2021/10/02 11:44:10;;;;;;;0.80;0.80;;;;;;;25.47;39.35;96793.19;4975789;28;20034;-84
2021/10/02 11:46:36;;;;;;;1.10;1.00;;;;;;;25.32;40.25;96799.34;4958358;28;20398;-85
2021/10/02 11:49:16;;;;;;;1.35;0.82;;;;;;;25.59;38.79;96800.25;4990854;28;20034;-85
2021/10/02 11:51:42;;;;;;;2.05;0.80;;;;;;;26.10;38.54;96794.72;4977877;28;20579;-84
2021/10/02 11:54:07;;;;;;;2.60;1.65;;;;;;;26.30;37.27;96784.78;4969979;28;20030;-84
2021/10/02 11:56:34;;;;;;;0.70;0.70;;;;;;;26.07;37.35;96798.09;4981745;28;20034;-85
2021/10/02 11:59:00;;;;;;;2.47;0.70;;;;;;;25.79;38.40;96809.03;4969209;28;20038;-84
2021/10/02 12:01:26;;;;;;;0.70;0.60;;;;;;;25.04;38.88;96790.38;4984780;28;20037;-85
2021/10/02 12:04:00;;;;;;;1.25;0.70;;;;;;;24.60;39.54;96797.78;4998723;28;20121;-85
2021/10/02 12:06:27;;;;;;;1.23;0.90;;;;;;;24.76;40.39;96793.22;4981332;28;20030;-84
2021/10/02 12:08:53;;;;;;;1.67;0.85;;;;;;;24.60;40.38;96795.09;4967108;28;20496;-83
2021/10/02 12:11:19;;;;;;;0.85;0.85;;;;;;;24.30;40.85;96793.63;4984449;28;20057;-86
2021/10/02 12:13:53;;;;;;;1.25;0.70;;;;;;;23.69;41.38;96785.97;4965889;28;20067;-85
2021/10/02 12:16:23;;;;;;;1.98;0.88;;;;;;;24.01;40.68;96786.03;4999712;28;20027;-85
2021/10/02 12:18:57;;;;;;;0.90;0.60;;;;;;;23.80;41.31;96773.72;4982749;28;20093;-84
2021/10/02 12:21:23;;;;;;;2.15;0.57;;;;;;;24.19;40.85;96781.94;4974928;28;20035;-84
2021/10/02 12:24:12;;;;;;;1.85;0.70;;;;;;;23.96;41.17;96773.78;4991514;28;20038;-84
2021/10/02 12:26:44;;;;;;;2.08;0.80;;;;;;;24.04;40.79;96766.75;4957930;28;20069;-84
2021/10/02 12:29:11;;;;;;;0.70;0.70;;;;;;;23.97;40.94;96759.38;4996178;28;20297;-84